createdAt,value
2022-12-27T00:05:48.734Z,100599.75
2022-12-27T00:15:50.426Z,100594.53
2022-12-27T00:26:04.159Z,100576.38
2022-12-27T00:36:07.870Z,100578.09
2022-12-27T00:46:10.081Z,100579.03
2022-12-27T00:56:21.335Z,100541.94
2022-12-27T01:06:29.143Z,100542.00
2022-12-27T01:16:31.934Z,100531.00
2022-12-27T01:26:34.713Z,100525.25
2022-12-27T01:36:36.510Z,100546.72
2022-12-27T01:46:38.478Z,100544.03
2022-12-27T01:56:43.451Z,100557.56
2022-12-27T02:06:46.944Z,100558.22
2022-12-27T02:16:49.100Z,100561.22
2022-12-27T02:27:02.909Z,100583.75
2022-12-27T02:37:09.721Z,100566.66
2022-12-27T02:47:38.780Z,100546.09
2022-12-27T02:58:06.006Z,100545.59
2022-12-27T03:08:29.699Z,100556.50
2022-12-27T03:19:05.291Z,100569.13
2022-12-27T03:29:27.523Z,100590.31
2022-12-27T03:39:37.419Z,100588.38
2022-12-27T03:49:50.760Z,100594.22
2022-12-27T03:59:53.769Z,100608.56
2022-12-27T04:10:14.378Z,100610.88
2022-12-27T04:20:34.978Z,100628.56
2022-12-27T04:30:55.372Z,100645.19
2022-12-27T04:41:24.324Z,100660.22
2022-12-27T04:51:45.902Z,100668.88
2022-12-27T05:02:05.000Z,100689.31
2022-12-27T05:12:29.500Z,100722.78
2022-12-27T05:22:54.944Z,100731.72
2022-12-27T05:33:04.334Z,100721.06
2022-12-27T05:43:06.138Z,100744.16
2022-12-27T05:53:08.342Z,100756.28
2022-12-27T06:03:10.180Z,100776.34
2022-12-27T06:13:12.031Z,100811.06
2022-12-27T06:23:18.852Z,100807.44
2022-12-27T06:33:20.531Z,100817.31
2022-12-27T06:43:27.008Z,100828.94
2022-12-27T06:53:33.746Z,100856.53
2022-12-27T07:03:36.297Z,100867.59
2022-12-27T07:13:41.344Z,100863.50
2022-12-27T07:23:43.367Z,100881.91
2022-12-27T07:33:45.421Z,100892.28
2022-12-27T07:43:47.494Z,100895.09
2022-12-27T07:53:51.811Z,100918.34
2022-12-27T08:03:54.625Z,100967.81
2022-12-27T08:13:56.496Z,100988.00
2022-12-27T08:23:58.571Z,101005.06
2022-12-27T08:34:00.187Z,101032.16
2022-12-27T08:44:01.867Z,101034.63
2022-12-27T08:54:04.407Z,101026.50
2022-12-27T09:04:08.957Z,101037.69
2022-12-27T09:14:11.892Z,101027.31
2022-12-27T09:24:14.327Z,101025.50
2022-12-27T09:34:22.469Z,101064.59
2022-12-27T09:44:32.624Z,101067.19
2022-12-27T09:55:17.803Z,101054.25
2022-12-27T10:05:23.498Z,101061.16
2022-12-27T10:15:50.276Z,101064.66
2022-12-27T10:25:58.958Z,101080.19
2022-12-27T10:36:10.807Z,101085.38
2022-12-27T10:46:15.082Z,101112.97
2022-12-27T10:56:29.524Z,101100.91
2022-12-27T11:06:32.018Z,101119.94
2022-12-27T11:16:36.113Z,101112.03
2022-12-27T11:26:55.874Z,101111.03
2022-12-27T11:37:15.689Z,101094.03
2022-12-27T11:47:36.800Z,101115.22
2022-12-27T11:57:51.081Z,101146.91
2022-12-27T12:08:36.441Z,101142.06
2022-12-27T12:19:08.902Z,101105.09
2022-12-27T12:29:31.067Z,101135.78
2022-12-27T12:40:01.364Z,101159.84
2022-12-27T12:50:21.652Z,101162.41
2022-12-27T13:00:51.804Z,101173.66
2022-12-27T13:11:13.995Z,101201.81
2022-12-27T13:21:46.633Z,101214.41
2022-12-27T13:32:04.952Z,101199.19
2022-12-27T13:42:24.628Z,101225.88
2022-12-27T13:52:57.562Z,101248.78
2022-12-27T14:03:17.393Z,101261.75
2022-12-27T14:13:41.788Z,101253.19
2022-12-27T14:24:32.830Z,101274.34
2022-12-27T14:35:04.689Z,101309.75
2022-12-27T14:45:38.205Z,101317.38
2022-12-27T14:56:21.538Z,101327.31
2022-12-27T15:06:45.024Z,101341.09
2022-12-27T15:17:07.897Z,101358.34
2022-12-27T15:27:26.057Z,101358.88
2022-12-27T15:38:02.866Z,101368.66
2022-12-27T15:48:10.333Z,101361.19
2022-12-27T15:58:19.107Z,101383.66
2022-12-27T16:08:27.709Z,101394.25
2022-12-27T16:18:29.598Z,101411.38
2022-12-27T16:28:42.487Z,101403.84
2022-12-27T16:39:02.432Z,101418.94
2022-12-27T16:49:26.233Z,101418.81
2022-12-27T17:00:05.856Z,101428.56
2022-12-27T17:10:35.891Z,101427.38
2022-12-27T17:20:41.339Z,101438.91
2022-12-27T17:31:14.739Z,101449.50
2022-12-27T17:41:53.746Z,101469.59
2022-12-27T17:52:15.663Z,101471.56
2022-12-27T18:02:26.224Z,101488.53
2022-12-27T18:12:44.471Z,101499.72
2022-12-27T18:22:46.728Z,101504.78
2022-12-27T18:32:49.081Z,101515.75
2022-12-27T18:42:54.165Z,101517.94
2022-12-27T18:53:02.405Z,101534.84
2022-12-27T19:03:21.252Z,101533.06
2022-12-27T19:13:30.446Z,101525.06
2022-12-27T19:23:39.992Z,101535.31
2022-12-27T19:33:55.263Z,101519.44
2022-12-27T19:43:57.753Z,101541.19
2022-12-27T19:54:00.003Z,101539.50
2022-12-27T20:04:02.633Z,101529.56
2022-12-27T20:14:04.920Z,101531.63
2022-12-27T20:24:08.789Z,101526.69
2022-12-27T20:34:11.458Z,101533.38
2022-12-27T20:44:15.670Z,101543.91
2022-12-27T20:54:19.107Z,101556.03
2022-12-27T21:04:22.100Z,101544.69
2022-12-27T21:14:24.049Z,101561.47
2022-12-27T21:24:27.036Z,101564.66
2022-12-27T21:34:30.269Z,101564.19
2022-12-27T21:44:38.184Z,101582.13
2022-12-27T21:54:41.279Z,101571.44
2022-12-27T22:04:43.365Z,101565.72
2022-12-27T22:14:48.140Z,101569.56
2022-12-27T22:24:49.804Z,101564.34
2022-12-27T22:34:54.548Z,101574.31
2022-12-27T22:44:56.511Z,101571.44
2022-12-27T22:55:04.580Z,101552.97
2022-12-27T23:05:14.417Z,101549.88
2022-12-27T23:15:16.363Z,101549.06
2022-12-27T23:25:19.096Z,101548.63
2022-12-27T23:35:21.354Z,101536.25
2022-12-27T23:45:23.948Z,101522.78
2022-12-27T23:55:25.652Z,101520.41
